createdAt,value
2022-08-09T00:04:00.837Z,3.20
2022-08-09T00:09:01.613Z,3.00
2022-08-09T00:14:09.686Z,3.50
2022-08-09T00:19:18.448Z,3.20
2022-08-09T00:24:24.383Z,3.00
2022-08-09T00:30:10.396Z,3.30
2022-08-09T00:34:37.827Z,2.63
2022-08-09T00:40:09.405Z,3.40
2022-08-09T00:44:52.130Z,3.40
2022-08-09T00:49:59.855Z,3.23
2022-08-09T00:55:07.854Z,3.77
2022-08-09T01:00:21.080Z,3.00
2022-08-09T01:05:51.566Z,2.90
2022-08-09T01:10:57.760Z,3.03
2022-08-09T01:16:06.382Z,3.37
2022-08-09T01:21:24.843Z,3.33
2022-08-09T01:26:46.341Z,3.17
2022-08-09T01:32:29.868Z,3.30
2022-08-09T01:37:03.432Z,3.20
2022-08-09T01:42:11.125Z,3.10
2022-08-09T01:47:18.406Z,3.37
2022-08-09T01:52:26.094Z,3.37
2022-08-09T01:57:44.217Z,3.50
2022-08-09T02:02:49.982Z,3.60
2022-08-09T02:08:40.946Z,3.40
2022-08-09T02:13:17.429Z,3.20
2022-08-09T02:18:27.114Z,3.83
2022-08-09T02:23:43.241Z,3.47
2022-08-09T02:28:56.277Z,3.30
2022-08-09T02:34:11.117Z,3.50
2022-08-09T02:39:33.754Z,3.87
2022-08-09T02:44:40.377Z,3.83
2022-08-09T02:50:01.124Z,4.60
2022-08-09T02:55:20.265Z,3.97
2022-08-09T03:00:25.466Z,4.13
2022-08-09T03:05:22.519Z,3.83
2022-08-09T03:10:30.154Z,3.83
2022-08-09T03:15:40.513Z,4.17
2022-08-09T03:20:45.139Z,3.83
2022-08-09T03:25:57.809Z,3.63
2022-08-09T03:31:00.565Z,3.80
2022-08-09T03:36:12.847Z,4.23
2022-08-09T03:41:18.376Z,4.47
2022-08-09T03:46:27.409Z,4.60
2022-08-09T03:51:55.924Z,4.50
2022-08-09T03:56:41.975Z,4.17
2022-08-09T04:01:50.377Z,4.17
2022-08-09T04:06:57.947Z,3.90
2022-08-09T04:12:30.422Z,4.27
2022-08-09T04:17:20.148Z,4.20
2022-08-09T04:22:28.015Z,4.80
2022-08-09T04:27:34.039Z,4.10
2022-08-09T04:32:45.836Z,4.67
2022-08-09T04:37:49.989Z,4.97
2022-08-09T04:42:55.449Z,4.27
2022-08-09T04:48:09.840Z,4.53
2022-08-09T04:53:11.668Z,5.50
2022-08-09T04:58:17.969Z,4.73
2022-08-09T05:03:40.125Z,4.27
2022-08-09T05:08:33.392Z,4.67
2022-08-09T05:13:40.831Z,4.43
2022-08-09T05:18:58.625Z,4.60
2022-08-09T05:24:01.443Z,5.27
2022-08-09T05:29:03.336Z,5.40
2022-08-09T05:34:09.550Z,4.93
2022-08-09T05:39:28.230Z,4.40
2022-08-09T05:44:29.185Z,4.07
2022-08-09T05:50:23.870Z,4.43
2022-08-09T05:54:39.654Z,3.63
2022-08-09T05:59:46.364Z,4.20
2022-08-09T06:04:52.017Z,3.87
2022-08-09T06:10:02.284Z,3.70
2022-08-09T06:15:10.084Z,4.17
2022-08-09T06:20:18.265Z,3.60
2022-08-09T06:25:23.356Z,3.70
2022-08-09T06:30:29.222Z,3.23
2022-08-09T06:35:56.482Z,3.53
2022-08-09T06:40:42.856Z,3.33
2022-08-09T06:46:06.056Z,4.73
2022-08-09T06:50:55.720Z,4.13
2022-08-09T06:56:03.324Z,3.93
2022-08-09T07:01:08.898Z,3.70
2022-08-09T07:06:14.426Z,3.53
2022-08-09T07:11:23.495Z,3.70
2022-08-09T07:16:42.347Z,3.50
2022-08-09T07:21:34.631Z,3.60
2022-08-09T07:26:42.141Z,3.30
2022-08-09T07:31:49.453Z,3.67
2022-08-09T07:36:55.189Z,3.03
2022-08-09T07:42:00.679Z,2.57
2022-08-09T07:47:07.882Z,2.53
2022-08-09T07:52:17.795Z,2.20
2022-08-09T07:57:22.417Z,2.70
2022-08-09T08:02:29.779Z,2.33
2022-08-09T08:08:43.002Z,2.50
2022-08-09T08:12:46.967Z,2.83
2022-08-09T08:17:58.590Z,2.70
2022-08-09T08:23:03.865Z,2.50
2022-08-09T08:28:09.807Z,2.00
2022-08-09T08:33:23.066Z,2.70
2022-08-09T08:38:24.865Z,2.13
2022-08-09T08:43:31.216Z,2.30
2022-08-09T08:48:38.060Z,2.50
2022-08-09T08:54:03.246Z,2.30
2022-08-09T08:58:53.649Z,2.23
2022-08-09T09:04:01.133Z,2.10
2022-08-09T09:09:21.214Z,2.20
2022-08-09T09:14:18.631Z,2.57
2022-08-09T09:19:40.931Z,2.33
2022-08-09T09:24:34.565Z,2.40
2022-08-09T09:30:14.312Z,2.40
2022-08-09T09:35:15.955Z,2.40
2022-08-09T09:40:20.776Z,2.70
2022-08-09T09:45:29.475Z,2.30
2022-08-09T09:50:51.364Z,2.37
2022-08-09T09:56:04.147Z,2.63
2022-08-09T10:01:37.869Z,2.30
2022-08-09T10:06:19.893Z,2.10
2022-08-09T10:12:00.778Z,2.57
2022-08-09T10:16:57.200Z,1.93
2022-08-09T10:21:50.327Z,1.80
2022-08-09T10:26:57.376Z,1.83
2022-08-09T10:37:13.856Z,1.70
2022-08-09T10:42:19.148Z,1.90
2022-08-09T10:48:17.164Z,1.80
2022-08-09T10:53:02.081Z,1.93
2022-08-09T10:58:10.853Z,1.83
2022-08-09T11:03:27.851Z,2.07
2022-08-09T11:08:47.898Z,1.70
2022-08-09T11:14:11.325Z,1.80
2022-08-09T11:19:21.653Z,1.70
2022-08-09T11:24:30.388Z,2.30
2022-08-09T11:30:05.595Z,2.40
2022-08-09T11:35:09.505Z,2.00
2022-08-09T11:40:19.597Z,2.10
2022-08-09T11:45:42.749Z,2.07
2022-08-09T11:52:56.432Z,1.90
2022-08-09T11:56:21.095Z,1.70
2022-08-09T12:02:16.975Z,1.90
2022-08-09T12:06:56.449Z,2.30
2022-08-09T12:12:13.159Z,2.03
2022-08-09T12:17:27.998Z,1.80
2022-08-09T12:22:26.130Z,2.47
2022-08-09T12:29:13.475Z,2.00
2022-08-09T12:32:40.740Z,2.00
2022-08-09T12:37:51.655Z,1.90
2022-08-09T12:42:54.557Z,1.87
2022-08-09T12:48:00.355Z,2.13
2022-08-09T12:53:17.911Z,2.00
2022-08-09T12:58:24.360Z,2.00
2022-08-09T13:03:57.255Z,1.90
2022-08-09T13:08:40.823Z,1.97
2022-08-09T13:14:41.637Z,1.93
2022-08-09T13:18:54.780Z,2.07
2022-08-09T13:24:42.392Z,2.30
2022-08-09T13:29:18.476Z,1.70
2022-08-09T13:34:24.490Z,2.03
2022-08-09T13:41:50.541Z,2.17
2022-08-09T13:44:42.116Z,2.23
2022-08-09T13:49:56.459Z,2.20
2022-08-09T13:54:59.249Z,2.87
2022-08-09T14:00:08.029Z,2.40
2022-08-09T14:05:57.201Z,2.07
2022-08-09T14:10:37.748Z,2.00
2022-08-09T14:16:10.628Z,2.30
2022-08-09T14:20:38.493Z,2.20
2022-08-09T14:25:44.754Z,2.07
2022-08-09T14:30:52.269Z,2.17
2022-08-09T14:36:20.304Z,2.03
2022-08-09T14:41:24.009Z,2.67
2022-08-09T14:46:54.413Z,2.20
2022-08-09T14:51:24.043Z,2.00
2022-08-09T14:56:30.331Z,2.13
2022-08-09T15:01:35.936Z,2.07
2022-08-09T15:06:41.562Z,1.93
2022-08-09T15:11:51.020Z,2.47
2022-08-09T15:16:56.685Z,2.30
2022-08-09T15:22:03.081Z,2.00
2022-08-09T15:27:08.737Z,2.10
2022-08-09T15:32:29.515Z,2.03
2022-08-09T15:37:37.047Z,2.10
2022-08-09T15:42:44.611Z,2.20
2022-08-09T15:48:01.861Z,1.87
2022-08-09T15:53:06.649Z,1.87
2022-08-09T15:58:05.060Z,1.80
2022-08-09T16:03:13.911Z,1.70
2022-08-09T16:08:30.362Z,1.73
2022-08-09T16:14:04.895Z,1.90
2022-08-09T16:18:35.820Z,2.10
2022-08-09T16:23:44.428Z,2.07
2022-08-09T16:28:49.007Z,1.77
2022-08-09T16:33:56.299Z,2.00
2022-08-09T16:39:04.376Z,2.00
2022-08-09T16:44:13.352Z,1.60
2022-08-09T16:50:26.815Z,1.50
2022-08-09T16:54:33.979Z,1.50
2022-08-09T16:59:34.996Z,1.80
2022-08-09T17:04:41.418Z,1.50
2022-08-09T17:09:47.967Z,1.60
2022-08-09T17:14:57.685Z,1.80
2022-08-09T17:20:32.341Z,1.40
2022-08-09T17:25:11.641Z,1.80
2022-08-09T17:30:20.422Z,1.30
2022-08-09T17:35:25.399Z,1.37
2022-08-09T17:40:32.678Z,1.60
2022-08-09T17:46:04.184Z,1.27
2022-08-09T17:50:56.010Z,1.53
2022-08-09T17:55:59.661Z,1.20
2022-08-09T18:01:01.010Z,1.50
2022-08-09T18:06:14.841Z,1.00
2022-08-09T18:11:16.305Z,1.43
2022-08-09T18:16:30.205Z,1.43
2022-08-09T18:21:31.897Z,1.47
2022-08-09T18:26:46.385Z,1.33
2022-08-09T18:31:51.193Z,1.60
2022-08-09T18:36:54.517Z,1.63
2022-08-09T18:42:01.247Z,1.13
2022-08-09T18:47:12.668Z,1.50
2022-08-09T18:52:24.639Z,1.70
2022-08-09T18:57:23.961Z,1.57
2022-08-09T19:02:32.655Z,1.80
2022-08-09T19:07:38.359Z,1.90
2022-08-09T19:12:50.217Z,1.87
2022-08-09T19:17:55.043Z,2.00
2022-08-09T19:22:59.131Z,2.10
2022-08-09T19:28:07.769Z,1.70
2022-08-09T19:33:19.671Z,1.90
2022-08-09T19:38:22.270Z,2.13
2022-08-09T19:44:00.616Z,1.57
2022-08-09T19:49:01.720Z,1.90
2022-08-09T19:53:45.485Z,2.20
2022-08-09T19:59:18.421Z,2.20
2022-08-09T20:04:11.124Z,1.90
2022-08-09T20:09:04.972Z,2.13
2022-08-09T20:14:15.141Z,1.90
2022-08-09T20:19:43.002Z,1.90
2022-08-09T20:24:33.852Z,1.87
2022-08-09T20:29:38.750Z,2.23
2022-08-09T20:34:44.672Z,2.30
2022-08-09T20:40:15.320Z,2.65
2022-08-09T20:45:56.380Z,1.67
2022-08-09T20:50:08.306Z,2.07
2022-08-09T20:55:14.355Z,1.70
2022-08-09T21:00:31.044Z,1.97
2022-08-09T21:05:51.262Z,2.90
2022-08-09T21:10:36.134Z,1.83
2022-08-09T21:15:54.284Z,2.10
2022-08-09T21:20:50.273Z,2.27
2022-08-09T21:25:59.655Z,2.07
2022-08-09T21:31:16.326Z,2.37
2022-08-09T21:36:14.997Z,2.67
2022-08-09T21:41:22.312Z,2.00
2022-08-09T21:46:29.512Z,2.90
2022-08-09T21:51:43.757Z,2.20
2022-08-09T21:56:54.251Z,2.50
2022-08-09T22:02:00.713Z,2.60
2022-08-09T22:07:02.132Z,2.80
2022-08-09T22:12:18.011Z,2.30
2022-08-09T22:17:14.908Z,2.53
2022-08-09T22:22:22.214Z,2.57
2022-08-09T22:27:28.066Z,2.53
2022-08-09T22:32:35.362Z,2.70
2022-08-09T22:37:42.095Z,2.57
2022-08-09T22:42:47.830Z,2.97
2022-08-09T22:48:16.876Z,2.47
2022-08-09T22:53:03.224Z,2.50
2022-08-09T22:58:09.323Z,2.80
2022-08-09T23:03:16.846Z,2.90
2022-08-09T23:08:41.959Z,2.53
2022-08-09T23:13:52.648Z,2.57
2022-08-09T23:18:58.130Z,2.73
2022-08-09T23:24:06.301Z,2.97
2022-08-09T23:29:14.011Z,2.87
2022-08-09T23:34:19.746Z,2.70
2022-08-09T23:39:25.373Z,2.80
2022-08-09T23:44:30.956Z,2.93
2022-08-09T23:49:36.518Z,3.27
2022-08-09T23:54:44.399Z,3.10
